Latest Weather Observations for Deniliquin

IDN60801

Issued at 8:05 pm EST Tuesday 23 September 2014 (issued every 30 minutes, with the page automatically refreshed every 10 minutes)

About weather observations | Map of weather stations | Latest weather observations for NSW | Other Formats
Station Details ID: 074258 Name: DENILIQUIN AIRPORT AWS Lat: -35.56 Lon: 144.95 Height: 94.0 m
Data from the previous 72 hours. | See also: Recent months at Deniliquin
Date/Time
EST
Temp
°C
App
Temp
°C
Dew
Point
Rel
Hum
%
Delta-T
°C
Wind Press
QNH
hPa
Press
MSL
hPa
Rain
since 9 am
mm
Dir
 
Spd
km/h
Gust
km/h
Spd
kts
Gust
kts
23/08:00pm 18.7 14.2 4.1 38 6.9 E 17 22 9 12 1021.2 1021.2 0.0
23/07:30pm 19.0 14.9 4.4 38 7.0 E 15 19 8 10 1021.2 1021.2 0.0
23/07:00pm 18.6 14.5 4.4 39 6.8 E 15 19 8 10 1021.1 1021.1 0.0
23/06:30pm 19.4 15.1 3.2 34 7.6 E 15 20 8 11 1021.1 1021.1 0.0
23/06:00pm 21.4 17.0 2.6 29 8.8 E 15 17 8 9 1021.2 1021.2 0.0
23/05:30pm 23.4 18.5 1.7 24 10.2 ENE 17 20 9 11 1021.3 1021.3 0.0
23/05:00pm 24.5 19.2 2.0 23 10.7 E 19 26 10 14 1021.2 1021.2 0.0
23/04:30pm 25.1 21.0 2.5 23 10.9 NE 13 20 7 11 1021.4 1021.4 0.0
23/04:00pm 25.4 20.1 2.8 23 11.0 ENE 20 30 11 16 1021.4 1021.4 0.0
23/03:30pm 25.6 20.7 2.3 22 11.3 ENE 17 26 9 14 1021.6 1021.6 0.0
23/03:00pm 25.6 20.2 2.3 22 11.2 ENE 20 26 11 14 1021.8 1021.8 0.0
23/02:30pm 25.5 22.7 2.9 23 11.1 N 7 15 4 8 1022.6 1022.6 0.0
23/02:00pm 25.5 22.4 3.5 24 10.8 NNE 9 20 5 11 1022.8 1022.8 0.0
23/01:30pm 24.7 20.5 3.9 26 10.3 ENE 15 22 8 12 1023.4 1023.4 0.0
23/01:00pm 24.9 20.4 4.1 26 10.3 NE 17 28 9 15 1023.9 1023.9 0.0
23/12:30pm 23.8 20.0 3.7 27 9.9 NE 13 20 7 11 1024.5 1024.6 0.0
23/12:00pm 23.9 18.9 3.8 27 9.8 N 19 22 10 12 1025.1 1025.2 0.0
23/11:30am 22.8 19.3 5.3 32 8.8 NE 13 20 7 11 1025.6 1025.7 0.0
23/11:00am 22.9 19.9 6.2 34 8.5 NE 11 19 6 10 1026.1 1026.2 0.0
23/10:30am 21.9 19.3 6.2 36 8.0 NNE 9 13 5 7 1026.4 1026.5 0.0
23/10:00am 20.5 17.6 6.4 40 7.1 NE 11 17 6 9 1026.8 1026.8 0.0
23/09:30am 18.7 15.4 6.2 44 6.2 ENE 13 19 7 10 1026.9 1026.9 0.0
23/09:00am 17.0 13.7 6.2 49 5.3 ENE 13 15 7 8 1027.2 1027.2 0.0
23/08:30am 15.2 11.7 5.4 52 4.7 NE 13 17 7 9 1027.3 1027.3 0.0
23/08:00am 12.7 7.9 4.4 57 3.8 NE 19 20 10 11 1027.3 1027.3 0.0
23/07:30am 11.0 7.3 4.5 64 2.9 ENE 13 19 7 10 1027.2 1027.2 0.0
23/07:00am 9.0 4.9 4.4 73 2.0 ENE 15 20 8 11 1027.2 1027.2 0.0
23/06:30am 7.0 3.2 4.0 81 1.3 E 13 15 7 8 1027.0 1027.0 0.0
23/06:00am 6.1 2.1 3.1 81 1.2 E 13 13 7 7 1027.0 1027.0 0.0
23/05:30am 6.0 2.0 2.8 80 1.3 E 13 15 7 8 1026.9 1026.9 0.0
23/05:00am 6.4 2.8 3.0 79 1.4 E 11 15 6 8 1026.9 1026.9 0.0
23/04:30am 7.2 4.0 2.9 74 1.8 E 9 11 5 6 1026.7 1026.7 0.0
23/04:00am 7.3 4.2 3.5 77 1.6 E 9 11 5 6 1026.3 1026.4 0.0
23/03:30am 7.0 3.8 3.1 76 1.6 E 9 11 5 6 1026.3 1026.4 0.0
23/03:00am 7.6 4.0 3.1 73 1.9 E 11 13 6 7 1026.3 1026.4 0.0
23/02:30am 8.5 5.1 3.8 72 2.0 ESE 11 13 6 7 1026.6 1026.6 0.0
23/02:00am 8.9 5.1 3.7 70 2.2 ESE 13 15 7 8 1026.8 1026.8 0.0
23/01:30am 9.8 6.0 4.0 67 2.6 ESE 13 15 7 8 1027.0 1027.0 0.0
23/01:00am 10.5 7.4 3.8 63 2.9 ESE 9 11 5 6 1027.1 1027.1 0.0
23/12:30am 12.0 8.3 4.2 59 3.5 E 13 17 7 9 1027.1 1027.1 0.0
23/12:00am 12.5 8.4 4.2 57 3.7 ESE 15 20 8 11 1027.1 1027.1 0.0
 
Date/Time
EST
Temp
°C
App
Temp
°C
Dew
Point
Rel
Hum
%
Delta-T
°C
Wind Press
QNH
hPa
Press
MSL
hPa
Rain
since 9 am
mm
Dir
 
Spd
km/h
Gust
km/h
Spd
kts
Gust
kts
22/11:30pm 11.0 7.2 4.0 62 3.1 ESE 13 15 7 8 1027.1 1027.1 0.0
22/11:00pm 11.1 7.2 3.4 59 3.4 ESE 13 15 7 8 1027.2 1027.2 0.0
22/10:30pm 13.2 8.5 3.3 51 4.4 E 17 19 9 10 1027.3 1027.3 0.0
22/10:00pm 13.4 8.7 2.9 49 4.6 E 17 19 9 10 1027.3 1027.3 0.0
22/09:30pm 12.5 8.0 2.1 49 4.5 E 15 17 8 9 1027.2 1027.2 0.0
22/09:00pm 12.4 7.5 2.0 49 4.5 E 17 19 9 10 1027.1 1027.1 0.0
22/08:30pm 12.8 8.2 1.8 47 4.8 ESE 15 17 8 9 1027.0 1027.0 0.0
22/08:00pm 13.3 8.6 1.0 43 5.2 ESE 15 17 8 9 1026.6 1026.6 0.0
22/07:30pm 16.1 11.1 1.4 37 6.5 E 17 19 9 10 1026.4 1026.5 0.0
22/07:00pm 16.3 11.3 1.6 37 6.5 E 17 19 9 10 1026.2 1026.3 0.0
22/06:30pm 16.3 11.6 1.2 36 6.7 ESE 15 17 8 9 1026.0 1026.1 0.0
22/06:00pm 19.3 15.1 1.8 31 8.0 ESE 13 17 7 9 1025.9 1026.0 0.0
22/05:30pm 21.8 17.1 0.9 25 9.6 E 15 22 8 12 1025.7 1025.8 0.0
22/05:00pm 22.8 18.3 -0.6 21 10.4 E 13 17 7 9 1025.5 1025.6 0.0
22/04:30pm 23.2 18.1 -1.7 19 11.0 ENE 15 20 8 11 1025.4 1025.5 0.0
22/04:00pm 23.5 19.7 -0.7 20 10.8 E 9 15 5 8 1025.4 1025.5 0.0
22/03:30pm 23.5 19.4 -0.1 21 10.8 NE 11 20 6 11 1025.5 1025.6 0.0
22/03:00pm 23.7 18.5 0.1 21 10.8 E 17 24 9 13 1025.8 1025.9 0.0
22/02:30pm 23.3 18.2 -1.6 19 11.0 E 15 24 8 13 1026.2 1026.3 0.0
22/02:00pm 23.4 19.4 0.5 22 10.5 E 11 19 6 10 1026.4 1026.5 0.0
22/01:30pm 22.9 19.1 1.8 25 9.9 N 11 17 6 9 1026.9 1026.9 0.0
22/01:00pm 23.0 17.8 0.2 22 10.3 N 17 24 9 13 1027.3 1027.3 0.0
22/12:30pm 22.3 18.1 1.9 26 9.6 NNE 13 24 7 13 1027.8 1027.8 0.0
22/12:00pm 21.5 16.7 2.7 29 8.8 NE 17 26 9 14 1028.3 1028.3 0.0
22/11:30am 21.6 16.6 3.8 31 8.6 N 19 22 10 12 1028.8 1028.8 0.0
22/11:00am 20.3 15.5 4.8 36 7.5 NE 19 30 10 16 1029.2 1029.2 0.0
22/10:30am 19.6 15.5 6.0 41 6.8 NE 17 24 9 13 1029.5 1029.5 0.0
22/10:00am 18.5 14.1 6.7 46 5.9 NNE 19 22 10 12 1029.7 1029.7 0.0
22/09:30am 17.1 13.2 6.9 51 5.1 ENE 17 20 9 11 1029.9 1029.9 0.0
22/09:00am 15.4 12.3 7.2 58 4.0 ENE 13 17 7 9 1030.1 1030.1 0.0
22/08:30am 13.3 10.2 7.1 66 3.0 ENE 13 17 7 9 1030.0 1030.0 0.0
22/08:00am 11.4 8.3 7.1 75 2.0 E 13 20 7 11 1029.8 1029.8 0.0
22/07:30am 9.5 6.3 6.9 84 1.2 E 13 17 7 9 1029.7 1029.7 0.0
22/07:00am 6.2 3.5 5.6 96 0.3 ESE 9 11 5 6 1029.4 1029.4 0.0
22/06:30am 3.4 0.5 2.5 94 0.4 SE 7 9 4 5 1029.1 1029.1 0.0
22/06:00am 2.8 -0.6 1.6 92 0.5 SE 9 11 5 6 1028.7 1028.7 0.0
22/05:30am 3.6 0.3 2.6 93 0.4 E 9 11 5 6 1028.5 1028.5 0.0
22/05:00am 4.5 1.7 3.3 92 0.5 SE 7 9 4 5 1028.2 1028.2 0.0
22/04:30am 4.4 1.6 2.9 90 0.6 SE 7 9 4 5 1028.0 1028.0 0.0
22/04:00am 4.8 2.1 3.5 91 0.5 SE 7 7 4 4 1027.7 1027.7 0.0
22/03:30am 4.7 1.4 2.7 87 0.8 ESE 9 11 5 6 1027.6 1027.6 0.0
22/03:00am 6.1 2.8 4.6 90 0.6 E 11 13 6 7 1027.7 1027.7 0.0
22/02:30am 5.1 1.9 3.3 88 0.7 E 9 9 5 5 1027.8 1027.8 0.0
22/02:00am 5.0 2.2 3.3 89 0.7 SE 7 9 4 5 1028.0 1028.0 0.0
22/01:30am 5.0 2.2 3.2 88 0.7 ESE 7 9 4 5 1028.2 1028.2 0.0
22/01:00am 5.0 2.1 2.5 84 1.0 SSE 7 7 4 4 1028.4 1028.4 0.0
22/12:30am 5.4 2.2 2.9 84 1.0 S 9 9 5 5 1028.5 1028.5 0.0
22/12:00am 5.4 2.5 2.4 81 1.2 S 7 11 4 6 1028.7 1028.7 0.0
 
Date/Time
EST
Temp
°C
App
Temp
°C
Dew
Point
Rel
Hum
%
Delta-T
°C
Wind Press
QNH
hPa
Press
MSL
hPa
Rain
since 9 am
mm
Dir
 
Spd
km/h
Gust
km/h
Spd
kts
Gust
kts
21/11:30pm 7.1 5.7 3.5 78 1.5 CALM 0 0 0 0 1028.8 1028.8 0.0
21/11:00pm 7.9 6.6 3.9 76 1.7 CALM 0 0 0 0 1028.8 1028.8 0.0
21/10:30pm 8.1 6.8 4.1 76 1.7 CALM 0 6 0 3 1028.7 1028.7 0.0
21/10:00pm 9.3 8.0 4.3 71 2.2 CALM 0 6 0 3 1028.7 1028.7 0.0
21/09:30pm 9.8 8.6 4.6 70 2.3 CALM 0 0 0 0 1028.5 1028.5 0.0
21/09:00pm 9.1 6.4 3.7 69 2.3 SSE 7 9 4 5 1028.3 1028.3 0.0
21/08:30pm 10.3 6.9 4.0 65 2.8 S 11 13 6 7 1028.2 1028.2 0.0
21/08:00pm 10.9 7.4 3.7 61 3.2 SSE 11 13 6 7 1028.0 1028.0 0.0
21/07:30pm 12.1 7.9 3.9 57 3.7 SSE 15 17 8 9 1027.9 1027.9 0.0
21/07:00pm 12.8 8.9 3.5 53 4.1 SSE 13 15 7 8 1027.7 1027.7 0.0
21/06:30pm 14.2 9.9 3.1 47 5.0 SSE 15 17 8 9 1027.3 1027.3 0.0
21/06:00pm 16.9 12.8 2.5 38 6.5 SSE 13 17 7 9 1027.1 1027.1 0.0
21/05:30pm 19.1 14.2 2.0 32 7.8 SSE 17 19 9 10 1026.9 1026.9 0.0
21/05:00pm 20.1 16.5 2.9 32 8.0 SSE 11 17 6 9 1026.8 1026.8 0.0
21/04:30pm 20.3 16.3 3.1 32 8.1 S 13 17 7 9 1026.8 1026.8 0.0
21/04:00pm 20.8 17.0 4.0 33 8.1 ESE 13 19 7 10 1027.0 1027.0 0.0
21/03:30pm 20.4 16.8 2.7 31 8.3 SSE 11 19 6 10 1027.3 1027.3 0.0
21/03:00pm 21.0 16.8 1.8 28 8.8 SSE 13 20 7 11 1027.5 1027.5 0.0
21/02:30pm 20.6 17.8 2.9 31 8.4 SSW 7 15 4 8 1027.6 1027.6 0.0
21/02:00pm 20.6 17.4 3.3 32 8.2 E 9 20 5 11 1027.9 1027.9 0.0
21/01:30pm 20.5 17.5 4.1 34 7.9 E 9 15 5 8 1028.2 1028.2 0.0
21/01:00pm 19.3 15.7 3.1 34 7.6 ESE 11 17 6 9 1028.6 1028.6 0.0
21/12:30pm 18.9 15.4 3.5 36 7.3 SE 11 17 6 9 1029.1 1029.1 0.0
21/12:00pm 18.4 15.9 4.9 41 6.5 ENE 7 11 4 6 1029.4 1029.4 0.0
21/11:30am 17.6 14.7 4.9 43 6.1 E 9 17 5 9 1029.8 1029.8 0.0
21/11:00am 17.1 14.0 5.4 46 5.6 E 11 17 6 9 1030.0 1030.0 0.0
21/10:30am 15.9 12.3 4.9 48 5.2 ESE 13 20 7 11 1030.3 1030.3 0.0
21/10:00am 15.0 11.0 5.0 51 4.7 ESE 15 20 8 11 1030.3 1030.3 0.0
21/09:30am 14.0 9.3 5.1 55 4.2 ESE 19 24 10 13 1030.2 1030.2 0.0
21/09:00am 13.1 8.4 5.0 58 3.7 E 19 22 10 12 1030.1 1030.1 0.0
21/08:30am 11.4 7.4 5.1 65 2.9 SE 15 20 8 11 1030.1 1030.1 0.0
21/08:00am 9.6 5.1 4.4 70 2.3 SE 17 20 9 11 1029.8 1029.8 0.0
21/07:30am 8.2 3.6 5.5 83 1.2 SE 19 24 10 13 1029.6 1029.6 0.0
21/07:00am 5.9 3.2 5.6 98 0.1 SSE 9 15 5 8 1029.5 1029.5 0.0
21/06:30am 2.3 -1.1 1.7 96 0.2 S 9 13 5 7 1029.3 1029.3 0.0
21/06:00am 2.5 -0.9 2.1 97 0.2 S 9 11 5 6 1028.8 1028.8 0.0
21/05:30am 2.7 -1.4 2.3 97 0.2 SSW 13 17 7 9 1028.5 1028.5 0.0
21/05:00am 1.4 -2.2 0.8 96 0.2 SSW 9 11 5 6 1027.8 1027.8 0.0
21/04:30am 2.0 -1.5 1.4 96 0.2 SSW 9 13 5 7 1027.2 1027.2 0.0
21/04:00am 2.0 -2.3 1.3 95 0.3 SSW 13 15 7 8 1026.9 1026.9 0.0
21/03:30am 2.1 -1.8 1.4 95 0.3 SW 11 13 6 7 1026.9 1026.9 0.0
21/03:00am 2.6 -1.6 1.9 95 0.3 SW 13 15 7 8 1026.9 1026.9 0.0
21/02:30am 3.2 -0.5 2.5 95 0.3 SW 11 11 6 6 1027.1 1027.1 0.0
21/02:00am 3.5 -0.2 2.6 94 0.4 SW 11 13 6 7 1027.3 1027.3 0.0
21/01:30am 3.9 0.3 2.9 93 0.4 SW 11 13 6 7 1027.7 1027.7 0.0
21/01:00am 4.6 1.1 3.3 91 0.5 SW 11 11 6 6 1027.7 1027.7 0.0
21/12:30am 5.5 1.4 4.2 91 0.6 SW 15 17 8 9 1027.9 1027.9 0.0
21/12:00am 6.3 2.2 4.5 88 0.8 SW 15 17 8 9 1027.8 1027.8 0.0
 
Date/Time
EST
Temp
°C
App
Temp
°C
Dew
Point
Rel
Hum
%
Delta-T
°C
Wind Press
QNH
hPa
Press
MSL
hPa
Rain
since 9 am
mm
Dir
 
Spd
km/h
Gust
km/h
Spd
kts
Gust
kts
20/11:30pm 6.7 2.7 4.7 87 0.9 SW 15 17 8 9 1027.8 1027.8 0.0
20/11:00pm 6.8 2.7 4.3 84 1.1 SSW 15 19 8 10 1028.0 1028.0 0.0
20/10:30pm 5.8 1.1 3.1 83 1.1 SW 17 19 9 10 1028.0 1028.0 0.0
20/10:00pm 6.4 2.0 2.9 78 1.4 SW 15 19 8 10 1027.9 1027.9 0.0
20/09:30pm 7.6 3.7 3.3 74 1.8 SSW 13 17 7 9 1027.9 1027.9 0.0
20/09:00pm 8.0 3.7 3.5 73 1.9 SSW 15 19 8 10 1027.8 1027.8 0.0
20/08:30pm 9.3 5.4 3.3 66 2.6 S 13 15 7 8 1027.6 1027.6 0.0

Other Formats:

Comma delimited format used in spreadsheet applications
http://www.bom.gov.au/fwo/IDN60801/IDN60801.95869.axf

JavaScript Object Notation format (JSON) in row-major order
http://www.bom.gov.au/fwo/IDN60801/IDN60801.95869.json